createdAt,value
2022-09-15T00:12:30.356Z,12.32
2022-09-15T00:14:57.154Z,12.18
2022-09-15T00:17:24.038Z,12.48
2022-09-15T00:19:50.815Z,12.95
2022-09-15T00:22:19.859Z,14.65
2022-09-15T00:24:49.224Z,18.02
2022-09-15T00:27:16.029Z,16.30
2022-09-15T00:29:44.410Z,16.88
2022-09-15T00:32:13.428Z,16.08
2022-09-15T00:34:54.188Z,12.80
2022-09-15T00:37:27.041Z,13.73
2022-09-15T00:39:58.964Z,19.35
2022-09-15T00:42:25.969Z,16.77
2022-09-15T00:45:03.459Z,13.10
2022-09-15T00:47:41.238Z,15.18
2022-09-15T00:50:17.080Z,16.33
2022-09-15T00:52:57.248Z,14.95
2022-09-15T00:56:01.483Z,15.18
2022-09-15T02:07:20.661Z,25.73
2022-09-15T02:10:06.862Z,24.20
2022-09-15T02:12:44.797Z,26.80
2022-09-15T02:15:25.053Z,23.40
2022-09-15T04:42:07.851Z,20.70
2022-09-15T04:52:41.571Z,20.52
2022-09-15T04:57:47.029Z,20.17
2022-09-15T05:00:14.909Z,21.33
2022-09-15T05:02:41.901Z,20.30
2022-09-15T05:05:08.992Z,21.58
2022-09-15T05:07:35.742Z,21.98
2022-09-15T05:10:02.556Z,21.95
2022-09-15T05:12:29.324Z,19.70
2022-09-15T05:14:57.440Z,24.20
2022-09-15T05:17:26.798Z,21.15
2022-09-15T05:19:53.763Z,21.10
2022-09-15T05:22:20.673Z,19.45
2022-09-15T05:24:47.438Z,17.75
2022-09-15T05:27:14.162Z,16.60
2022-09-15T05:29:40.907Z,16.73
2022-09-15T05:32:09.026Z,19.67
2022-09-15T05:34:35.823Z,18.23
2022-09-15T05:37:03.007Z,21.00
2022-09-15T05:39:29.734Z,21.65
2022-09-15T05:41:56.496Z,22.25
2022-09-15T05:44:23.224Z,19.60
2022-09-15T05:46:50.221Z,17.25
2022-09-15T05:49:18.423Z,19.63
2022-09-15T05:51:45.197Z,17.17
2022-09-15T05:54:11.978Z,18.08
2022-09-15T05:56:38.768Z,19.90
2022-09-15T05:59:05.629Z,21.50
2022-09-15T06:01:32.789Z,18.92
2022-09-15T06:04:00.037Z,17.33
2022-09-15T06:06:28.207Z,19.67
2022-09-15T06:08:58.976Z,18.15
2022-09-15T06:11:28.301Z,16.77
2022-09-15T06:13:55.691Z,17.65
2022-09-15T06:16:23.952Z,17.08
2022-09-15T06:18:52.344Z,20.58
2022-09-15T06:21:21.354Z,17.23
2022-09-15T06:23:55.355Z,17.67
2022-09-15T06:26:24.874Z,18.98
2022-09-15T06:28:53.910Z,16.17
2022-09-15T06:31:21.890Z,16.17
2022-09-15T06:33:53.064Z,18.27
2022-09-15T06:36:21.775Z,15.70
2022-09-15T06:38:48.774Z,18.17
2022-09-15T06:41:16.711Z,18.90
2022-09-15T06:43:45.502Z,17.92
2022-09-15T06:46:18.747Z,17.20
2022-09-15T06:48:53.729Z,15.38
2022-09-15T06:51:23.094Z,13.63
2022-09-15T06:53:49.747Z,12.15
2022-09-15T06:56:18.775Z,10.52
2022-09-15T06:58:50.570Z,10.75
2022-09-15T07:01:22.631Z,9.68
2022-09-15T07:03:49.924Z,9.02
2022-09-15T07:06:17.592Z,9.38
2022-09-15T07:08:45.436Z,8.00
2022-09-15T07:11:13.177Z,7.40
2022-09-15T07:13:40.568Z,7.25
2022-09-15T07:16:11.624Z,6.55
2022-09-15T07:18:43.004Z,7.00
2022-09-15T07:21:13.163Z,6.53
2022-09-15T07:23:40.602Z,4.97
2022-09-15T07:26:09.971Z,5.00
2022-09-15T07:28:37.523Z,5.32
2022-09-15T07:37:52.428Z,3.75
2022-09-15T07:40:22.172Z,3.13
2022-09-15T07:42:49.058Z,3.60
2022-09-15T07:45:15.894Z,2.67
2022-09-15T07:50:47.035Z,2.85
2022-09-15T07:58:35.833Z,2.58
2022-09-15T08:01:03.764Z,2.50
2022-09-15T08:03:31.155Z,2.03
2022-09-15T08:05:58.856Z,1.77
2022-09-15T08:11:18.398Z,2.10
2022-09-15T08:13:55.312Z,2.05
2022-09-15T08:16:24.529Z,1.80
2022-09-15T08:21:30.119Z,1.83
2022-09-15T08:23:58.251Z,2.03
2022-09-15T08:26:26.403Z,1.42
2022-09-15T08:28:53.306Z,1.30
2022-09-15T08:31:24.250Z,1.80
2022-09-15T08:33:54.064Z,1.75
2022-09-15T08:36:21.583Z,2.25
2022-09-15T08:38:48.759Z,2.13
2022-09-15T08:41:20.125Z,1.75
2022-09-15T08:43:52.386Z,2.28
2022-09-15T08:46:26.420Z,2.38
2022-09-15T08:49:02.722Z,1.88
2022-09-15T08:51:34.952Z,1.63
2022-09-15T08:54:07.395Z,1.77
2022-09-15T08:56:37.055Z,1.52
2022-09-15T08:59:04.305Z,1.50
2022-09-15T09:01:50.335Z,1.50
2022-09-15T09:04:52.844Z,1.45
2022-09-15T09:07:34.195Z,1.27
2022-09-15T09:10:08.114Z,1.65
2022-09-15T09:12:53.300Z,1.35
2022-09-15T09:15:26.877Z,1.50
2022-09-15T09:20:47.754Z,1.42
2022-09-15T09:23:17.887Z,1.70
2022-09-15T09:25:45.680Z,1.20
2022-09-15T09:28:24.116Z,0.98
2022-09-15T09:30:50.899Z,1.20
2022-09-15T09:33:28.255Z,0.90
2022-09-15T09:35:58.180Z,1.67
2022-09-15T09:38:27.500Z,1.40
2022-09-15T09:40:58.582Z,1.08
2022-09-15T09:43:30.112Z,1.23
2022-09-15T09:45:57.118Z,1.20
2022-09-15T09:48:27.432Z,1.20
2022-09-15T09:50:55.214Z,0.95
2022-09-15T09:53:27.671Z,1.27
2022-09-15T09:55:55.923Z,1.25
2022-09-15T09:58:25.986Z,1.42
2022-09-15T10:00:53.219Z,1.20
2022-09-15T10:03:21.810Z,1.20
2022-09-15T10:06:04.784Z,1.08
2022-09-15T10:08:32.045Z,1.23
2022-09-15T10:11:04.706Z,1.63
2022-09-15T10:13:32.849Z,1.40
2022-09-15T10:16:02.451Z,0.95
2022-09-15T10:18:33.437Z,0.73
2022-09-15T10:21:03.442Z,1.23
2022-09-15T10:23:32.017Z,1.65
2022-09-15T10:26:21.038Z,1.27
2022-09-15T10:29:12.615Z,1.10
2022-09-15T10:31:39.821Z,1.27
2022-09-15T10:34:28.375Z,1.33
2022-09-15T10:37:06.412Z,1.23
2022-09-15T10:39:48.350Z,1.00
2022-09-15T10:42:23.987Z,1.08
2022-09-15T10:45:03.753Z,1.08
2022-09-15T10:47:42.750Z,1.20
2022-09-15T10:50:16.098Z,1.20
2022-09-15T10:53:01.025Z,1.92
2022-09-15T10:55:52.282Z,1.50
2022-09-15T10:58:39.840Z,1.20
2022-09-15T11:01:34.603Z,1.52
2022-09-15T11:04:27.796Z,1.05
2022-09-15T11:07:03.876Z,1.25
2022-09-15T11:09:34.713Z,1.42
2022-09-15T11:12:27.096Z,0.85
2022-09-15T11:15:14.696Z,1.42
2022-09-15T11:17:55.883Z,1.25
2022-09-15T11:20:50.031Z,1.13
2022-09-15T11:23:21.541Z,0.82
2022-09-15T11:25:57.415Z,1.10
2022-09-15T11:28:29.873Z,1.08
2022-09-15T11:31:02.486Z,0.82
2022-09-15T11:33:34.756Z,1.23
2022-09-15T11:36:06.790Z,0.70
2022-09-15T11:38:40.614Z,0.90
2022-09-15T11:41:24.205Z,0.65
2022-09-15T11:44:16.121Z,1.08
2022-09-15T11:47:15.686Z,1.02
2022-09-15T11:49:47.541Z,0.68
2022-09-15T11:52:27.343Z,0.98
2022-09-15T11:55:01.060Z,0.80
2022-09-15T11:57:34.972Z,0.93
2022-09-15T12:00:07.064Z,0.95
2022-09-15T12:02:42.613Z,0.93
2022-09-15T12:05:13.816Z,0.70
2022-09-15T12:07:48.382Z,0.57
2022-09-15T12:10:20.579Z,1.27
2022-09-15T12:12:51.503Z,1.45
2022-09-15T12:15:20.362Z,0.93
2022-09-15T12:17:54.408Z,0.85
2022-09-15T12:20:26.434Z,0.88
2022-09-15T12:23:02.402Z,1.35
2022-09-15T12:25:34.582Z,0.75
2022-09-15T12:28:37.165Z,0.90
2022-09-15T12:31:25.514Z,0.90
2022-09-15T12:33:57.839Z,0.95
2022-09-15T12:36:46.977Z,0.63
2022-09-15T12:39:24.442Z,1.05
2022-09-15T12:41:53.404Z,0.93
2022-09-15T12:44:29.482Z,1.10
2022-09-15T12:46:59.129Z,1.27
2022-09-15T12:49:30.786Z,1.27
2022-09-15T12:51:58.917Z,0.80
2022-09-15T12:54:29.692Z,0.77
2022-09-15T12:56:57.623Z,0.80
2022-09-15T12:59:27.125Z,1.13
2022-09-15T13:01:55.187Z,0.93
2022-09-15T13:04:53.030Z,0.98
2022-09-15T13:07:34.218Z,1.20
2022-09-15T13:10:27.122Z,1.27
2022-09-15T13:13:10.948Z,1.10
2022-09-15T13:18:12.233Z,1.15
2022-09-15T13:20:43.300Z,1.15
2022-09-15T13:23:15.602Z,1.05
2022-09-15T13:25:45.822Z,1.35
2022-09-15T13:31:03.152Z,0.85
2022-09-15T13:40:07.234Z,1.23
2022-09-15T13:42:51.531Z,1.05
2022-09-15T13:45:43.812Z,1.23
2022-09-15T13:48:45.434Z,0.95
2022-09-15T13:51:19.541Z,1.00
2022-09-15T13:53:51.782Z,1.02
2022-09-15T13:56:24.319Z,1.15
2022-09-15T13:58:55.095Z,1.45
2022-09-15T14:01:25.827Z,1.08
2022-09-15T14:03:56.552Z,1.42
2022-09-15T14:06:26.090Z,1.42
2022-09-15T14:08:55.947Z,1.55
2022-09-15T14:11:26.756Z,1.27
2022-09-15T14:13:55.209Z,1.20
2022-09-15T14:16:34.275Z,1.77
2022-09-15T14:19:17.150Z,1.25
2022-09-15T14:21:49.142Z,1.08
2022-09-15T14:24:21.051Z,1.23
2022-09-15T14:26:48.855Z,1.05
2022-09-15T14:29:20.548Z,1.33
2022-09-15T14:31:48.722Z,1.75
2022-09-15T14:34:20.731Z,1.30
2022-09-15T14:37:03.490Z,1.20
2022-09-15T14:39:30.590Z,1.42
2022-09-15T14:47:20.401Z,1.30
2022-09-15T14:49:49.039Z,1.20
2022-09-15T14:52:28.836Z,1.38
2022-09-15T14:55:00.488Z,1.38
2022-09-15T14:57:31.316Z,1.25
2022-09-15T15:00:01.832Z,1.20
2022-09-15T15:02:38.915Z,1.50
2022-09-15T15:05:11.042Z,1.58
2022-09-15T15:07:39.019Z,1.83
2022-09-15T15:10:14.363Z,1.90
2022-09-15T15:12:43.704Z,1.65
2022-09-15T15:15:12.607Z,1.67
2022-09-15T15:17:43.098Z,2.30
2022-09-15T15:20:17.859Z,2.25
2022-09-15T15:22:46.191Z,1.70
2022-09-15T15:25:28.520Z,1.85
2022-09-15T15:27:56.743Z,2.03
2022-09-15T15:30:35.853Z,1.95
2022-09-15T15:33:04.693Z,2.05
2022-09-15T15:35:35.809Z,1.75
2022-09-15T15:38:06.305Z,2.20
2022-09-15T15:40:35.510Z,1.60
2022-09-15T15:43:06.103Z,1.67
2022-09-15T15:45:34.728Z,1.52
2022-09-15T15:48:03.011Z,2.00
2022-09-15T15:50:32.447Z,1.60
2022-09-15T15:53:02.553Z,1.95
2022-09-15T15:55:37.951Z,1.73
2022-09-15T15:58:05.033Z,1.20
2022-09-15T16:00:39.097Z,1.52
2022-09-15T16:03:06.407Z,1.17
2022-09-15T16:05:34.516Z,1.50
2022-09-15T16:10:44.820Z,1.23
2022-09-15T16:13:14.441Z,1.20
2022-09-15T16:15:41.747Z,1.35
2022-09-15T16:18:08.676Z,1.58
2022-09-15T16:20:35.449Z,1.23
2022-09-15T16:23:03.104Z,1.42
2022-09-15T16:25:36.647Z,1.58
2022-09-15T16:28:04.950Z,1.50
2022-09-15T16:30:32.310Z,1.70
2022-09-15T16:32:59.604Z,1.80
2022-09-15T16:35:37.388Z,2.30
2022-09-15T16:38:06.391Z,1.30
2022-09-15T16:40:33.504Z,1.70
2022-09-15T16:43:00.665Z,1.15
2022-09-15T16:45:35.266Z,1.42
2022-09-15T16:48:05.119Z,1.30
2022-09-15T16:53:17.842Z,1.13
2022-09-15T16:55:46.706Z,1.30
2022-09-15T16:58:15.246Z,1.50
2022-09-15T17:00:45.143Z,1.48
2022-09-15T17:03:16.525Z,1.40
2022-09-15T17:05:48.557Z,1.30
2022-09-15T17:08:17.085Z,1.92
2022-09-15T17:10:44.487Z,1.15
2022-09-15T17:15:42.333Z,1.63
2022-09-15T17:18:13.375Z,1.48
2022-09-15T17:20:40.238Z,1.50
2022-09-15T17:23:17.873Z,1.55
2022-09-15T17:25:51.350Z,1.45
2022-09-15T17:28:21.140Z,1.65
2022-09-15T17:30:49.357Z,1.70
2022-09-15T17:33:19.190Z,1.50
2022-09-15T17:35:46.923Z,1.70
2022-09-15T17:38:14.358Z,1.50
2022-09-15T17:40:41.526Z,1.60
2022-09-15T17:43:14.165Z,1.77
2022-09-15T17:45:41.110Z,1.23
2022-09-15T17:48:09.309Z,1.55
2022-09-15T17:50:38.415Z,1.50
2022-09-15T17:53:12.756Z,1.73
2022-09-15T17:55:40.381Z,1.55
2022-09-15T17:58:08.082Z,1.80
2022-09-15T18:00:37.016Z,1.45
2022-09-15T18:03:06.136Z,1.45
2022-09-15T18:05:35.106Z,1.45
2022-09-15T18:08:05.585Z,1.65
2022-09-15T18:10:34.302Z,1.50
2022-09-15T18:13:01.992Z,1.52
2022-09-15T18:15:31.554Z,1.55
2022-09-15T18:18:02.847Z,1.30
2022-09-15T18:20:32.072Z,1.80
2022-09-15T18:22:59.251Z,1.45
2022-09-15T18:25:30.999Z,1.55
2022-09-15T18:27:58.283Z,1.50
2022-09-15T18:30:27.199Z,1.45
2022-09-15T18:32:54.445Z,1.45
2022-09-15T18:35:22.168Z,1.98
2022-09-15T18:37:54.246Z,1.42
2022-09-15T18:40:21.345Z,1.45
2022-09-15T18:42:49.624Z,1.20
2022-09-15T18:45:18.320Z,1.75
2022-09-15T18:47:48.812Z,1.75
2022-09-15T18:50:17.508Z,1.45
2022-09-15T18:52:44.736Z,1.63
2022-09-15T18:55:15.358Z,1.35
2022-09-15T18:57:42.964Z,1.23
2022-09-15T19:00:14.144Z,1.67
2022-09-15T19:02:41.192Z,1.55
2022-09-15T19:05:11.451Z,1.40
2022-09-15T19:07:38.904Z,1.08
2022-09-15T19:10:06.972Z,1.95
2022-09-15T19:12:35.655Z,1.42
2022-09-15T19:15:03.067Z,1.20
2022-09-15T19:17:31.499Z,1.42
2022-09-15T19:20:00.406Z,2.08
2022-09-15T19:22:27.356Z,1.23
2022-09-15T19:24:54.462Z,1.85
2022-09-15T19:27:21.402Z,1.77
2022-09-15T19:29:48.385Z,1.65
2022-09-15T19:32:18.334Z,1.63
2022-09-15T19:34:47.758Z,1.83
2022-09-15T19:37:18.692Z,1.77
2022-09-15T19:39:46.688Z,1.80
2022-09-15T19:44:47.819Z,1.80
2022-09-15T19:47:14.972Z,1.73
2022-09-15T19:49:41.759Z,1.80
2022-09-15T19:52:09.948Z,1.52
2022-09-15T19:54:36.770Z,1.45
2022-09-15T19:57:04.116Z,2.15
2022-09-15T19:59:31.990Z,1.52
2022-09-15T20:01:59.740Z,1.52
2022-09-15T20:04:26.960Z,1.83
2022-09-15T20:06:53.756Z,1.85
2022-09-15T20:09:22.252Z,1.92
2022-09-15T20:11:49.275Z,2.00
2022-09-15T20:14:16.485Z,1.48
2022-09-15T20:16:43.469Z,1.60
2022-09-15T20:19:10.392Z,2.05
2022-09-15T20:21:49.850Z,1.75
2022-09-15T20:24:18.288Z,2.00
2022-09-15T20:26:46.503Z,2.17
2022-09-15T20:29:13.392Z,1.73
2022-09-15T20:31:40.834Z,2.15
2022-09-15T20:34:07.649Z,2.45
2022-09-15T20:36:36.577Z,2.13
2022-09-15T20:39:06.768Z,2.30
2022-09-15T20:41:33.642Z,2.17
2022-09-15T20:44:02.170Z,2.35
2022-09-15T20:46:29.406Z,2.40
2022-09-15T20:48:56.281Z,1.75
2022-09-15T20:51:31.514Z,1.88
2022-09-15T20:54:00.157Z,1.83
2022-09-15T20:56:28.657Z,1.60
2022-09-15T20:58:57.049Z,1.92
2022-09-15T21:01:26.927Z,1.67
2022-09-15T21:03:55.363Z,1.58
2022-09-15T21:06:24.052Z,1.83
2022-09-15T21:08:51.101Z,1.77
2022-09-15T21:11:20.253Z,1.50
2022-09-15T21:13:48.218Z,1.45
2022-09-15T21:16:17.412Z,1.80
2022-09-15T21:18:46.416Z,1.45
2022-09-15T21:21:15.331Z,1.70
2022-09-15T21:23:43.972Z,1.70
2022-09-15T21:26:12.885Z,2.17
2022-09-15T21:28:40.201Z,1.92
2022-09-15T21:31:09.484Z,1.90
2022-09-15T21:33:37.289Z,1.30
2022-09-15T21:36:09.477Z,1.10
2022-09-15T21:38:37.556Z,1.70
2022-09-15T21:41:06.416Z,1.25
2022-09-15T21:43:35.947Z,1.20
2022-09-15T21:46:04.900Z,1.20
2022-09-15T21:48:32.694Z,1.38
2022-09-15T21:51:00.033Z,1.58
2022-09-15T21:53:28.969Z,1.08
2022-09-15T21:55:56.655Z,1.23
2022-09-15T21:58:26.093Z,1.33
2022-09-15T22:00:53.232Z,1.00
2022-09-15T22:03:20.856Z,1.25
2022-09-15T22:05:48.188Z,1.00
2022-09-15T22:08:16.259Z,1.35
2022-09-15T22:10:44.536Z,1.02
2022-09-15T22:13:12.795Z,1.33
2022-09-15T22:15:39.588Z,1.35
2022-09-15T22:18:07.397Z,1.25
2022-09-15T22:20:37.155Z,1.13
2022-09-15T22:23:11.396Z,1.70
2022-09-15T22:25:45.068Z,1.13
2022-09-15T22:28:13.301Z,1.10
2022-09-15T22:30:40.462Z,1.15
2022-09-15T22:33:07.208Z,1.20
2022-09-15T22:35:33.981Z,1.50
2022-09-15T22:38:00.777Z,1.10
2022-09-15T22:40:29.548Z,1.10
2022-09-15T22:42:56.324Z,1.42
2022-09-15T22:45:24.590Z,1.38
2022-09-15T22:47:51.344Z,1.40
2022-09-15T22:50:18.106Z,1.30
2022-09-15T22:52:45.002Z,1.63
2022-09-15T22:55:11.741Z,1.70
2022-09-15T22:57:39.645Z,1.17
2022-09-15T23:00:08.400Z,1.45
2022-09-15T23:02:36.567Z,1.83
2022-09-15T23:05:03.639Z,1.42
2022-09-15T23:07:30.403Z,1.00
2022-09-15T23:09:58.327Z,1.25
2022-09-15T23:12:25.309Z,1.42
2022-09-15T23:14:52.070Z,1.00
2022-09-15T23:17:18.919Z,1.52
2022-09-15T23:19:47.251Z,1.25
2022-09-15T23:22:14.249Z,1.13
2022-09-15T23:24:41.000Z,1.95
2022-09-15T23:27:07.797Z,1.20
2022-09-15T23:29:34.579Z,1.52
2022-09-15T23:32:01.747Z,1.75
2022-09-15T23:34:28.512Z,0.80
2022-09-15T23:36:57.101Z,1.75
2022-09-15T23:39:24.198Z,1.33
2022-09-15T23:41:50.946Z,1.27
2022-09-15T23:44:17.710Z,1.55
2022-09-15T23:46:44.639Z,1.38
2022-09-15T23:49:14.433Z,1.50
2022-09-15T23:51:44.814Z,1.38
2022-09-15T23:54:13.098Z,1.20
2022-09-15T23:56:39.931Z,1.40
2022-09-15T23:59:07.081Z,1.42
